createdAt,value
2023-02-28T00:49:45.996Z,891.00
2023-02-28T00:50:46.089Z,892.00
2023-02-28T00:51:46.172Z,892.00
2023-02-28T00:53:46.343Z,893.00
2023-02-28T00:54:46.457Z,895.00
2023-02-28T00:55:46.555Z,898.00
2023-02-28T00:56:46.633Z,894.00
2023-02-28T00:57:46.822Z,890.00
2023-02-28T02:50:55.956Z,819.00
2023-02-28T02:51:56.028Z,822.00
2023-02-28T02:52:56.088Z,820.00
2023-02-28T02:53:56.152Z,823.00
2023-02-28T02:54:56.726Z,820.00
2023-02-28T02:55:56.295Z,819.00
2023-02-28T02:56:56.376Z,818.00
2023-02-28T02:57:56.438Z,815.00
2023-02-28T02:58:56.506Z,815.00
2023-02-28T02:59:56.565Z,813.00
2023-02-28T03:00:56.678Z,812.00
2023-02-28T03:01:56.705Z,810.00
2023-02-28T03:02:56.774Z,811.00
2023-02-28T03:03:56.899Z,811.00
2023-02-28T03:04:56.904Z,811.00
2023-02-28T03:05:56.980Z,813.00
2023-02-28T03:06:57.036Z,813.00
2023-02-28T03:07:57.130Z,814.00
2023-02-28T03:08:57.195Z,812.00
2023-02-28T03:09:57.264Z,810.00
2023-02-28T03:10:57.346Z,812.00
2023-02-28T03:11:57.444Z,811.00
2023-02-28T03:12:57.519Z,807.00
2023-02-28T03:13:57.591Z,804.00
2023-02-28T03:14:57.738Z,803.00
2023-02-28T03:15:57.787Z,803.00
2023-02-28T03:16:57.831Z,804.00
2023-02-28T03:17:57.935Z,804.00
2023-02-28T03:18:58.035Z,804.00
2023-02-28T03:19:58.120Z,801.00
2023-02-28T03:20:58.183Z,800.00
2023-02-28T03:21:58.248Z,800.00
2023-02-28T03:22:58.332Z,804.00
2023-02-28T03:23:58.421Z,804.00
2023-02-28T03:24:58.515Z,798.00
2023-02-28T03:25:58.603Z,798.00
2023-02-28T04:23:03.380Z,764.00
2023-02-28T04:24:03.485Z,764.00
2023-02-28T04:25:03.594Z,767.00
2023-02-28T04:26:03.687Z,768.00
2023-02-28T04:27:03.787Z,766.00
2023-02-28T04:28:03.896Z,765.00
2023-02-28T04:29:03.994Z,762.00
2023-02-28T04:30:04.093Z,759.00
2023-02-28T04:31:04.206Z,756.00
2023-02-28T04:32:04.451Z,758.00
2023-02-28T04:33:04.394Z,759.00
2023-02-28T04:34:04.495Z,756.00
2023-02-28T04:35:04.585Z,754.00
2023-02-28T04:36:04.717Z,754.00
2023-02-28T04:37:14.024Z,756.00
2023-02-28T04:39:04.837Z,755.00
2023-02-28T04:40:04.888Z,756.00
2023-02-28T04:41:04.900Z,757.00
2023-02-28T04:42:04.937Z,756.00
2023-02-28T04:43:04.969Z,757.00
2023-02-28T04:44:05.008Z,756.00
2023-02-28T04:45:05.040Z,756.00
2023-02-28T04:46:05.146Z,757.00
2023-02-28T04:47:05.118Z,757.00
2023-02-28T04:48:05.175Z,757.00
2023-02-28T06:09:13.662Z,725.00
2023-02-28T06:15:14.180Z,729.00
2023-02-28T06:16:13.542Z,729.00
2023-02-28T06:17:13.673Z,731.00
2023-02-28T06:18:13.721Z,744.00
2023-02-28T06:19:13.814Z,782.00
2023-02-28T06:20:13.959Z,773.00
2023-02-28T06:21:14.062Z,751.00
2023-02-28T06:22:14.156Z,740.00
2023-02-28T06:23:14.198Z,741.00
2023-02-28T06:24:14.304Z,816.00
2023-02-28T06:25:14.377Z,798.00
2023-02-28T06:26:14.471Z,791.00
2023-02-28T06:27:14.574Z,794.00
2023-02-28T06:28:14.662Z,826.00
2023-02-28T07:58:23.726Z,707.00
2023-02-28T08:07:24.245Z,699.00
2023-02-28T08:08:23.362Z,701.00
2023-02-28T08:09:23.389Z,699.00
2023-02-28T08:10:23.423Z,697.00
2023-02-28T08:11:23.457Z,698.00
2023-02-28T08:12:23.486Z,698.00
2023-02-28T08:13:23.533Z,696.00
2023-02-28T08:14:23.609Z,696.00
2023-02-28T08:15:23.614Z,697.00
2023-02-28T08:16:23.712Z,695.00
2023-02-28T08:17:23.711Z,693.00
2023-02-28T08:18:23.725Z,693.00
2023-02-28T08:19:23.803Z,754.00
2023-02-28T08:20:23.805Z,834.00
2023-02-28T08:21:23.849Z,871.00
2023-02-28T08:22:23.877Z,914.00
2023-02-28T08:23:23.937Z,1025.00
2023-02-28T08:24:24.131Z,975.00
2023-02-28T08:25:24.043Z,814.00
2023-02-28T08:26:24.135Z,756.00
2023-02-28T08:27:24.198Z,751.00
2023-02-28T08:28:27.003Z,778.00
2023-02-28T08:29:24.301Z,822.00
2023-02-28T08:30:24.308Z,864.00
2023-02-28T08:31:25.249Z,880.00
2023-02-28T08:32:29.923Z,911.00
2023-02-28T08:33:25.455Z,972.00
2023-02-28T08:34:24.451Z,1004.00
2023-02-28T08:35:24.491Z,1049.00
2023-02-28T08:36:24.532Z,1058.00
2023-02-28T08:37:24.513Z,1092.00
2023-02-28T08:38:24.577Z,1107.00
2023-02-28T08:39:24.567Z,1127.00
2023-02-28T08:40:24.612Z,1181.00
2023-02-28T08:41:24.621Z,1219.00
2023-02-28T08:42:24.750Z,1235.00
2023-02-28T08:43:24.663Z,1257.00
2023-02-28T08:44:24.691Z,1279.00
2023-02-28T08:45:24.707Z,1302.00
2023-02-28T08:46:24.781Z,1351.00
2023-02-28T08:47:24.740Z,1346.00
2023-02-28T08:48:24.762Z,1422.00
2023-02-28T08:49:24.777Z,1435.00
2023-02-28T08:50:24.925Z,1434.00
2023-02-28T08:51:24.846Z,1502.00
2023-02-28T08:52:24.932Z,1537.00
2023-02-28T08:53:25.062Z,1549.00
2023-02-28T08:54:25.096Z,1552.00
2023-02-28T08:55:25.196Z,1567.00
2023-02-28T08:56:25.268Z,1630.00
2023-02-28T08:57:25.352Z,1647.00
2023-02-28T08:58:25.432Z,1671.00
2023-02-28T08:59:25.509Z,1697.00
2023-02-28T09:00:25.672Z,1720.00
2023-02-28T09:01:25.751Z,1772.00
2023-02-28T09:02:25.765Z,1795.00
2023-02-28T09:03:25.835Z,1806.00
2023-02-28T09:04:25.915Z,1813.00
2023-02-28T09:05:25.993Z,1821.00
2023-02-28T09:06:26.066Z,1848.00
2023-02-28T09:07:26.131Z,1926.00
2023-02-28T09:08:26.208Z,1969.00
2023-02-28T09:15:26.671Z,2005.00
2023-02-28T09:28:27.526Z,1640.00
2023-02-28T09:29:27.568Z,1638.00
2023-02-28T09:30:27.658Z,1749.00
2023-02-28T09:31:27.739Z,1755.00
2023-02-28T12:23:33.327Z,2722.00
2023-02-28T12:24:33.359Z,2728.00
2023-02-28T12:27:33.462Z,2716.00
2023-02-28T12:28:33.491Z,2708.00
2023-02-28T12:30:33.705Z,2707.00
2023-02-28T12:31:33.639Z,2704.00
2023-02-28T12:32:33.645Z,2693.00
2023-02-28T12:33:34.263Z,2689.00
2023-02-28T12:34:33.707Z,2689.00
2023-02-28T12:35:33.810Z,2685.00
2023-02-28T12:36:33.793Z,2685.00
2023-02-28T12:37:34.040Z,2678.00
2023-02-28T12:38:33.883Z,2678.00
2023-02-28T12:39:39.072Z,2676.00
2023-02-28T12:41:33.976Z,2663.00
2023-02-28T12:42:34.021Z,2659.00
2023-02-28T12:43:34.062Z,2653.00
2023-02-28T12:44:34.123Z,2647.00
2023-02-28T12:45:34.175Z,2639.00
2023-02-28T12:46:34.187Z,2640.00
2023-02-28T12:47:34.261Z,2640.00
2023-02-28T12:48:34.182Z,2638.00
2023-02-28T12:49:34.193Z,2638.00
2023-02-28T12:51:34.331Z,2626.00
2023-02-28T12:52:34.280Z,2622.00
2023-02-28T12:53:34.306Z,2616.00
2023-02-28T12:54:34.351Z,2615.00
2023-02-28T12:55:34.380Z,2613.00
2023-02-28T12:56:34.393Z,2598.00
2023-02-28T12:57:34.421Z,2596.00
2023-02-28T12:58:34.467Z,2589.00
2023-02-28T13:00:34.518Z,2421.00
2023-02-28T13:02:34.620Z,2299.00
2023-02-28T13:03:34.595Z,2247.00
2023-02-28T13:04:34.620Z,2248.00
2023-02-28T13:05:34.643Z,2187.00
2023-02-28T13:06:34.683Z,2197.00
2023-02-28T13:07:34.730Z,2304.00
2023-02-28T13:08:34.810Z,2286.00
2023-02-28T13:09:34.843Z,2272.00
2023-02-28T13:10:34.922Z,2234.00
2023-02-28T13:11:35.414Z,2233.00
2023-02-28T13:12:34.979Z,2223.00
2023-02-28T13:13:35.040Z,2204.00
2023-02-28T13:14:35.091Z,2204.00
2023-02-28T13:15:35.139Z,2194.00
2023-02-28T13:16:36.090Z,2187.00
2023-02-28T15:42:43.343Z,1611.00
2023-02-28T15:43:43.409Z,1608.00
2023-02-28T15:44:43.489Z,1602.00
2023-02-28T15:45:43.559Z,1600.00
2023-02-28T15:46:43.645Z,1598.00
2023-02-28T15:47:43.733Z,1593.00
2023-02-28T15:48:43.795Z,1590.00
2023-02-28T15:49:46.389Z,1588.00
2023-02-28T15:50:44.056Z,1588.00
2023-02-28T15:51:44.115Z,1590.00
2023-02-28T15:52:44.190Z,1589.00
2023-02-28T15:53:44.275Z,1593.00
2023-02-28T15:54:44.365Z,1594.00
2023-02-28T15:55:44.410Z,1590.00
2023-02-28T15:56:44.494Z,1588.00
2023-02-28T15:57:44.560Z,1584.00
2023-02-28T15:58:44.626Z,1578.00
2023-02-28T15:59:44.727Z,1575.00
2023-02-28T16:00:44.795Z,1574.00
2023-02-28T16:01:44.910Z,1569.00
2023-02-28T16:02:45.084Z,1566.00
2023-02-28T16:03:45.037Z,1566.00
2023-02-28T16:04:45.115Z,1564.00
2023-02-28T16:05:45.206Z,1564.00
2023-02-28T16:06:45.288Z,1568.00
2023-02-28T16:07:45.368Z,1564.00
2023-02-28T16:08:45.478Z,1562.00
2023-02-28T16:09:45.537Z,1559.00
2023-02-28T16:10:45.623Z,1560.00
2023-02-28T16:11:45.715Z,1559.00
2023-02-28T16:12:45.804Z,1552.00
2023-02-28T16:13:45.876Z,1553.00
2023-02-28T16:14:45.953Z,1550.00
2023-02-28T16:15:46.038Z,1550.00
2023-02-28T16:16:46.233Z,1549.00
2023-02-28T16:17:46.406Z,1549.00
2023-02-28T16:18:46.299Z,1548.00
2023-02-28T16:19:46.364Z,1548.00
2023-02-28T16:21:46.523Z,1543.00
2023-02-28T16:22:46.610Z,1541.00
2023-02-28T16:23:46.694Z,1534.00
2023-02-28T16:24:46.790Z,1532.00
2023-02-28T16:25:46.874Z,1528.00
2023-02-28T16:26:46.971Z,1527.00
2023-02-28T16:27:47.073Z,1524.00
2023-02-28T16:28:47.144Z,1522.00
2023-02-28T16:29:47.243Z,1519.00
2023-02-28T16:30:47.369Z,1519.00
2023-02-28T16:31:47.434Z,1519.00
2023-02-28T16:32:47.515Z,1519.00
2023-02-28T16:33:47.620Z,1520.00
2023-02-28T16:34:47.679Z,1514.00
2023-02-28T16:35:47.770Z,1512.00
2023-02-28T16:36:48.003Z,1510.00
2023-02-28T16:37:47.974Z,1508.00
2023-02-28T16:39:49.764Z,1509.00
2023-02-28T16:40:48.186Z,1510.00
2023-02-28T16:41:48.206Z,1509.00
2023-02-28T16:42:48.245Z,1510.00
2023-02-28T16:43:48.284Z,1507.00
2023-02-28T16:44:48.318Z,1508.00
2023-02-28T16:45:48.393Z,1509.00
2023-02-28T16:46:48.392Z,1505.00
2023-02-28T16:47:48.428Z,1506.00
2023-02-28T16:48:48.586Z,1505.00
2023-02-28T16:49:48.650Z,1504.00
2023-02-28T16:50:48.544Z,1501.00
2023-02-28T16:52:48.623Z,1495.00
2023-02-28T16:53:48.666Z,1490.00
2023-02-28T16:54:48.703Z,1487.00
2023-02-28T16:55:48.754Z,1485.00
2023-02-28T16:58:48.858Z,1477.00
2023-02-28T16:59:48.901Z,1476.00
2023-02-28T17:00:48.945Z,1476.00
2023-02-28T17:01:49.205Z,1476.00
2023-02-28T17:02:49.128Z,1477.00
2023-02-28T17:03:49.104Z,1475.00
2023-02-28T17:04:49.099Z,1473.00
2023-02-28T17:05:49.218Z,1472.00
2023-02-28T17:06:49.181Z,1470.00
2023-02-28T17:07:49.210Z,1468.00
2023-02-28T17:08:49.256Z,1465.00
2023-02-28T17:09:49.296Z,1463.00
2023-02-28T17:56:53.338Z,1394.00
2023-02-28T17:57:53.441Z,1396.00
2023-02-28T17:58:53.550Z,1395.00
2023-02-28T17:59:53.657Z,1391.00
2023-02-28T18:00:53.754Z,1389.00
2023-02-28T19:27:03.482Z,1264.00
2023-02-28T19:34:03.396Z,1255.00
2023-02-28T19:35:03.503Z,1255.00
2023-02-28T19:36:03.596Z,1254.00
2023-02-28T19:37:03.704Z,1255.00
2023-02-28T19:38:03.823Z,1254.00
2023-02-28T19:39:03.940Z,1253.00
2023-02-28T19:40:04.104Z,1251.00
2023-02-28T19:41:04.133Z,1251.00
2023-02-28T19:42:04.251Z,1249.00
2023-02-28T19:43:05.385Z,1247.00
2023-02-28T19:44:04.492Z,1246.00
2023-02-28T19:45:04.593Z,1242.00
2023-02-28T19:46:04.774Z,1241.00
2023-02-28T19:47:04.813Z,1237.00
2023-02-28T19:48:04.931Z,1232.00
2023-02-28T19:49:05.036Z,1230.00
2023-02-28T19:50:05.156Z,1230.00
2023-02-28T19:51:05.352Z,1228.00
2023-02-28T19:52:05.421Z,1230.00
2023-02-28T19:53:05.527Z,1227.00
2023-02-28T19:54:05.579Z,1227.00
2023-02-28T19:55:05.691Z,1223.00
2023-02-28T19:56:05.817Z,1222.00
2023-02-28T19:57:05.889Z,1225.00
2023-02-28T19:58:05.978Z,1224.00
2023-02-28T19:59:12.932Z,1223.00
2023-02-28T20:00:07.127Z,1222.00
2023-02-28T20:01:07.052Z,1219.00
2023-02-28T20:02:06.241Z,1219.00
2023-02-28T20:03:06.248Z,1221.00
2023-02-28T20:04:06.484Z,1215.00
2023-02-28T20:05:06.376Z,1207.00
2023-02-28T20:06:06.446Z,1205.00
2023-02-28T20:07:06.427Z,1204.00
2023-02-28T20:08:06.514Z,1201.00
2023-02-28T20:09:06.622Z,1203.00
2023-02-28T20:10:06.730Z,1204.00
2023-02-28T20:11:06.834Z,1204.00
2023-02-28T20:12:09.297Z,1203.00
2023-02-28T20:13:07.972Z,1202.00
2023-02-28T20:14:07.020Z,1201.00
2023-02-28T20:15:07.069Z,1197.00
2023-02-28T20:16:07.119Z,1195.00
2023-02-28T20:17:07.185Z,1190.00
2023-02-28T20:18:07.191Z,1188.00
2023-02-28T20:19:07.249Z,1186.00
2023-02-28T20:20:07.368Z,1185.00
2023-02-28T20:21:07.366Z,1188.00
2023-02-28T20:22:07.534Z,1188.00
2023-02-28T20:23:07.575Z,1187.00
2023-02-28T20:24:07.705Z,1187.00
2023-02-28T20:25:07.804Z,1185.00
2023-02-28T20:26:07.926Z,1183.00
2023-02-28T20:27:08.062Z,1185.00
2023-02-28T20:28:09.007Z,1182.00
2023-02-28T20:29:08.220Z,1177.00
2023-02-28T20:30:08.287Z,1174.00
2023-02-28T20:31:08.393Z,1175.00
2023-02-28T20:32:08.513Z,1177.00
2023-02-28T20:33:08.602Z,1181.00
2023-02-28T20:34:08.640Z,1182.00
2023-02-28T20:35:08.733Z,1178.00
2023-02-28T20:36:08.807Z,1178.00
2023-02-28T20:37:08.932Z,1175.00
2023-02-28T20:38:08.995Z,1170.00
2023-02-28T20:39:09.114Z,1169.00
2023-02-28T20:40:09.223Z,1166.00
2023-02-28T20:41:09.380Z,1167.00
2023-02-28T20:42:09.413Z,1170.00
2023-02-28T20:43:09.501Z,1169.00
2023-02-28T20:44:09.612Z,1168.00
2023-02-28T20:45:09.700Z,1167.00
2023-02-28T20:46:09.857Z,1166.00
2023-02-28T20:47:09.928Z,1165.00
2023-02-28T20:48:10.043Z,1161.00
2023-02-28T20:49:10.148Z,1160.00
2023-02-28T20:50:10.260Z,1158.00
2023-02-28T20:51:10.379Z,1156.00
2023-02-28T20:52:10.498Z,1155.00
2023-02-28T20:53:10.617Z,1154.00
2023-02-28T20:54:10.761Z,1155.00
2023-02-28T20:55:10.853Z,1154.00
2023-02-28T20:56:10.987Z,1151.00
2023-02-28T20:57:11.204Z,1151.00
2023-02-28T20:58:11.184Z,1150.00
2023-02-28T20:59:11.285Z,1150.00
2023-02-28T21:00:11.435Z,1151.00
2023-02-28T21:01:11.594Z,1152.00
2023-02-28T21:02:11.750Z,1147.00
2023-02-28T21:03:11.745Z,1149.00
2023-02-28T21:04:11.841Z,1149.00
2023-02-28T21:05:11.914Z,1146.00
2023-02-28T21:21:13.375Z,1137.00
2023-02-28T21:22:13.478Z,1136.00
2023-02-28T21:23:13.590Z,1136.00
2023-02-28T21:24:13.701Z,1133.00
2023-02-28T21:25:13.780Z,1133.00
2023-02-28T21:26:13.861Z,1132.00
2023-02-28T21:27:13.963Z,1130.00
2023-02-28T21:34:14.543Z,1118.00
2023-02-28T21:35:14.630Z,1116.00
2023-02-28T21:36:14.733Z,1119.00
2023-02-28T21:37:15.527Z,1117.00
2023-02-28T21:38:14.902Z,1116.00
2023-02-28T21:39:15.005Z,1113.00
2023-02-28T21:40:15.082Z,1111.00
2023-02-28T21:41:15.185Z,1110.00
2023-02-28T21:42:16.049Z,1107.00
2023-02-28T21:43:15.321Z,1109.00
2023-02-28T21:44:15.380Z,1110.00
2023-02-28T21:45:15.480Z,1110.00
2023-02-28T21:46:15.610Z,1108.00
2023-02-28T21:47:15.668Z,1109.00
2023-02-28T21:48:15.740Z,1109.00
2023-02-28T21:49:15.843Z,1109.00
2023-02-28T21:50:15.905Z,1108.00
2023-02-28T21:51:15.964Z,1109.00
2023-02-28T21:52:16.053Z,1106.00
2023-02-28T21:53:16.127Z,1103.00
2023-02-28T21:54:16.203Z,1102.00
2023-02-28T21:55:16.268Z,1103.00
2023-02-28T21:56:16.335Z,1100.00
2023-02-28T21:57:16.446Z,1098.00
2023-02-28T21:58:16.489Z,1097.00
2023-02-28T21:59:16.620Z,1096.00
2023-02-28T22:01:16.861Z,1097.00
2023-02-28T22:02:16.819Z,1094.00
2023-02-28T22:03:16.994Z,1093.00
2023-02-28T22:04:17.024Z,1091.00
2023-02-28T22:05:17.110Z,1088.00
2023-02-28T22:06:17.222Z,1088.00
2023-02-28T22:07:17.547Z,1088.00
2023-02-28T22:08:17.553Z,1087.00
2023-02-28T22:09:17.482Z,1086.00
2023-02-28T22:10:17.547Z,1085.00
2023-02-28T22:11:17.636Z,1081.00
2023-02-28T22:12:17.716Z,1079.00
2023-02-28T22:13:17.817Z,1078.00
2023-02-28T22:14:17.905Z,1079.00
2023-02-28T22:15:17.991Z,1080.00
2023-02-28T22:16:18.092Z,1077.00
2023-02-28T22:17:18.119Z,1075.00
2023-02-28T22:18:18.192Z,1071.00
2023-02-28T22:19:18.297Z,1071.00
2023-02-28T22:20:18.334Z,1068.00
2023-02-28T22:21:18.420Z,1070.00
2023-02-28T22:22:18.557Z,1069.00
2023-02-28T22:23:19.052Z,1066.00
2023-02-28T22:24:18.644Z,1065.00
2023-02-28T22:25:18.737Z,1066.00
2023-02-28T22:26:18.815Z,1065.00
2023-02-28T22:27:18.889Z,1063.00
2023-02-28T22:28:18.957Z,1058.00
2023-02-28T22:29:19.553Z,1057.00
2023-02-28T22:30:19.190Z,1057.00
2023-02-28T22:31:19.231Z,1056.00
2023-02-28T22:32:19.333Z,1056.00
2023-02-28T22:33:19.393Z,1059.00
2023-02-28T22:34:19.443Z,1061.00
2023-02-28T22:35:19.551Z,1061.00
2023-02-28T22:36:19.604Z,1060.00
2023-02-28T22:37:19.678Z,1062.00
2023-02-28T22:38:19.805Z,1062.00
2023-02-28T22:39:19.845Z,1056.00
2023-02-28T22:40:19.958Z,1052.00
2023-02-28T22:41:19.980Z,1049.00
2023-02-28T22:42:20.054Z,1049.00
2023-02-28T22:43:20.124Z,1047.00
2023-02-28T22:44:20.206Z,1049.00
2023-02-28T22:45:20.283Z,1053.00
2023-02-28T22:46:20.387Z,1054.00
2023-02-28T22:47:20.445Z,1051.00
2023-02-28T22:48:20.569Z,1051.00
2023-02-28T22:49:20.636Z,1053.00
2023-02-28T22:50:20.685Z,1052.00
2023-02-28T22:51:20.753Z,1053.00
2023-02-28T22:52:20.825Z,1053.00
2023-02-28T22:53:20.907Z,1051.00
2023-02-28T22:54:21.005Z,1050.00
2023-02-28T22:55:21.139Z,1050.00
2023-02-28T22:56:21.181Z,1046.00
2023-02-28T22:57:21.262Z,1045.00
2023-02-28T22:58:21.339Z,1042.00
2023-02-28T22:59:21.413Z,1038.00
2023-02-28T23:00:21.499Z,1037.00
2023-02-28T23:01:21.604Z,1036.00
2023-02-28T23:02:21.734Z,1036.00
2023-02-28T23:21:23.387Z,1020.00
2023-02-28T23:22:23.460Z,1020.00
2023-02-28T23:23:23.566Z,1018.00
2023-02-28T23:24:23.651Z,1017.00
2023-02-28T23:25:23.737Z,1014.00
2023-02-28T23:26:23.910Z,1014.00
2023-02-28T23:27:23.907Z,1013.00
2023-02-28T23:28:23.974Z,1014.00
2023-02-28T23:29:24.042Z,1009.00
2023-02-28T23:30:24.120Z,1010.00
2023-02-28T23:31:24.244Z,1011.00
2023-02-28T23:32:24.268Z,1009.00
2023-02-28T23:33:24.345Z,1007.00
2023-02-28T23:34:24.505Z,1008.00
2023-02-28T23:35:24.528Z,1007.00
2023-02-28T23:36:24.613Z,1004.00
2023-02-28T23:37:24.699Z,1005.00
2023-02-28T23:38:24.788Z,1003.00
2023-02-28T23:39:24.892Z,1003.00
2023-02-28T23:40:24.997Z,1002.00
2023-02-28T23:41:25.101Z,1001.00
2023-02-28T23:42:25.197Z,1001.00
2023-02-28T23:43:25.273Z,1002.00
2023-02-28T23:44:25.353Z,1003.00
2023-02-28T23:45:25.478Z,999.00
2023-02-28T23:46:25.554Z,999.00
2023-02-28T23:47:25.654Z,995.00
2023-02-28T23:48:25.768Z,995.00
2023-02-28T23:49:25.902Z,993.00
2023-02-28T23:50:26.035Z,993.00
2023-02-28T23:51:26.084Z,993.00
2023-02-28T23:52:26.184Z,992.00
2023-02-28T23:53:26.262Z,991.00
2023-02-28T23:54:26.349Z,991.00
2023-02-28T23:55:26.438Z,993.00
2023-02-28T23:56:26.543Z,991.00
2023-02-28T23:57:26.587Z,994.00
2023-02-28T23:58:27.574Z,993.00
2023-02-28T23:59:26.747Z,996.00
